sensor_id;sensor_type;location;lat;lon;timestamp;P1;durP1;ratioP1;P2;durP2;ratioP2
70132;SDS011;57495;49.922;7.966;2023-05-10T00:01:25;5.03;;;0.40;;
70132;SDS011;57495;49.922;7.966;2023-05-10T00:03:28;2.50;;;0.30;;
70132;SDS011;57495;49.922;7.966;2023-05-10T00:05:29;1.65;;;0.40;;
70132;SDS011;57495;49.922;7.966;2023-05-10T00:07:30;2.08;;;0.50;;
70132;SDS011;57495;49.922;7.966;2023-05-10T00:09:32;1.70;;;0.40;;
70132;SDS011;57495;49.922;7.966;2023-05-10T00:11:33;1.40;;;0.30;;
70132;SDS011;57495;49.922;7.966;2023-05-10T00:13:35;1.85;;;0.38;;
70132;SDS011;57495;49.922;7.966;2023-05-10T00:15:36;1.30;;;0.30;;
70132;SDS011;57495;49.922;7.966;2023-05-10T00:17:38;1.58;;;0.28;;
70132;SDS011;57495;49.922;7.966;2023-05-10T00:19:41;1.63;;;0.30;;
70132;SDS011;57495;49.922;7.966;2023-05-10T00:21:42;1.45;;;0.22;;
70132;SDS011;57495;49.922;7.966;2023-05-10T00:23:45;2.20;;;0.35;;
70132;SDS011;57495;49.922;7.966;2023-05-10T00:25:46;1.35;;;0.20;;
70132;SDS011;57495;49.922;7.966;2023-05-10T00:27:47;1.25;;;0.20;;
70132;SDS011;57495;49.922;7.966;2023-05-10T00:29:49;1.33;;;0.20;;
70132;SDS011;57495;49.922;7.966;2023-05-10T00:31:50;2.15;;;0.20;;
70132;SDS011;57495;49.922;7.966;2023-05-10T00:33:52;1.52;;;0.20;;
70132;SDS011;57495;49.922;7.966;2023-05-10T00:35:55;2.28;;;0.30;;
70132;SDS011;57495;49.922;7.966;2023-05-10T00:37:56;1.40;;;0.20;;
70132;SDS011;57495;49.922;7.966;2023-05-10T00:39:58;1.73;;;0.30;;
70132;SDS011;57495;49.922;7.966;2023-05-10T00:41:59;1.50;;;0.28;;
70132;SDS011;57495;49.922;7.966;2023-05-10T00:44:01;1.27;;;0.20;;
70132;SDS011;57495;49.922;7.966;2023-05-10T00:46:02;1.58;;;0.20;;
70132;SDS011;57495;49.922;7.966;2023-05-10T00:48:04;1.65;;;0.30;;
70132;SDS011;57495;49.922;7.966;2023-05-10T00:50:06;1.50;;;0.20;;
70132;SDS011;57495;49.922;7.966;2023-05-10T00:52:10;2.08;;;0.30;;
70132;SDS011;57495;49.922;7.966;2023-05-10T00:54:12;1.40;;;0.25;;
70132;SDS011;57495;49.922;7.966;2023-05-10T00:56:14;2.67;;;0.30;;
70132;SDS011;57495;49.922;7.966;2023-05-10T00:58:16;1.15;;;0.25;;
70132;SDS011;57495;49.922;7.966;2023-05-10T01:00:18;1.60;;;0.20;;
70132;SDS011;57495;49.922;7.966;2023-05-10T01:02:20;1.40;;;0.20;;
70132;SDS011;57495;49.922;7.966;2023-05-10T01:04:21;1.30;;;0.20;;
70132;SDS011;57495;49.922;7.966;2023-05-10T01:06:25;5.45;;;0.20;;
70132;SDS011;57495;49.922;7.966;2023-05-10T01:08:29;2.00;;;0.20;;
70132;SDS011;57495;49.922;7.966;2023-05-10T01:10:30;1.40;;;0.30;;
70132;SDS011;57495;49.922;7.966;2023-05-10T01:12:32;1.55;;;0.20;;
70132;SDS011;57495;49.922;7.966;2023-05-10T01:14:35;3.63;;;0.40;;
70132;SDS011;57495;49.922;7.966;2023-05-10T01:16:37;2.45;;;0.20;;
70132;SDS011;57495;49.922;7.966;2023-05-10T01:18:41;1.08;;;0.20;;
70132;SDS011;57495;49.922;7.966;2023-05-10T01:20:43;3.03;;;0.20;;
70132;SDS011;57495;49.922;7.966;2023-05-10T01:23:04;1.83;;;0.30;;
70132;SDS011;57495;49.922;7.966;2023-05-10T01:25:22;0.90;;;0.20;;
70132;SDS011;57495;49.922;7.966;2023-05-10T01:30:44;1.30;;;0.22;;
70132;SDS011;57495;49.922;7.966;2023-05-10T01:33:06;1.70;;;0.22;;
70132;SDS011;57495;49.922;7.966;2023-05-10T01:35:14;1.73;;;0.30;;
70132;SDS011;57495;49.922;7.966;2023-05-10T01:37:20;2.28;;;0.20;;
70132;SDS011;57495;49.922;7.966;2023-05-10T01:39:28;2.60;;;0.30;;
70132;SDS011;57495;49.922;7.966;2023-05-10T01:41:39;1.55;;;0.32;;
70132;SDS011;57495;49.922;7.966;2023-05-10T01:43:52;2.67;;;0.30;;
70132;SDS011;57495;49.922;7.966;2023-05-10T01:45:59;1.60;;;0.55;;
70132;SDS011;57495;49.922;7.966;2023-05-10T01:48:11;5.15;;;0.40;;
70132;SDS011;57495;49.922;7.966;2023-05-10T01:50:15;1.80;;;0.38;;
70132;SDS011;57495;49.922;7.966;2023-05-10T01:52:22;2.78;;;0.20;;
70132;SDS011;57495;49.922;7.966;2023-05-10T01:54:27;3.33;;;0.17;;
70132;SDS011;57495;49.922;7.966;2023-05-10T01:56:30;2.08;;;0.20;;
70132;SDS011;57495;49.922;7.966;2023-05-10T01:58:34;1.38;;;0.20;;
70132;SDS011;57495;49.922;7.966;2023-05-10T02:00:42;1.10;;;0.20;;
70132;SDS011;57495;49.922;7.966;2023-05-10T02:02:46;1.88;;;0.43;;
70132;SDS011;57495;49.922;7.966;2023-05-10T02:04:52;1.33;;;0.17;;
70132;SDS011;57495;49.922;7.966;2023-05-10T02:06:55;1.20;;;0.10;;
70132;SDS011;57495;49.922;7.966;2023-05-10T02:08:58;2.72;;;0.30;;
70132;SDS011;57495;49.922;7.966;2023-05-10T02:11:02;1.92;;;0.45;;
70132;SDS011;57495;49.922;7.966;2023-05-10T02:13:05;1.35;;;0.20;;
70132;SDS011;57495;49.922;7.966;2023-05-10T02:15:09;3.10;;;0.20;;
70132;SDS011;57495;49.922;7.966;2023-05-10T02:17:12;1.45;;;0.30;;
70132;SDS011;57495;49.922;7.966;2023-05-10T02:19:15;1.90;;;0.20;;
70132;SDS011;57495;49.922;7.966;2023-05-10T02:21:20;6.82;;;0.52;;
70132;SDS011;57495;49.922;7.966;2023-05-10T02:23:22;3.20;;;0.30;;
70132;SDS011;57495;49.922;7.966;2023-05-10T02:25:25;2.95;;;0.32;;
70132;SDS011;57495;49.922;7.966;2023-05-10T02:27:28;3.70;;;0.50;;
70132;SDS011;57495;49.922;7.966;2023-05-10T02:29:31;3.55;;;0.35;;
70132;SDS011;57495;49.922;7.966;2023-05-10T02:31:34;1.58;;;0.38;;
70132;SDS011;57495;49.922;7.966;2023-05-10T02:33:38;3.67;;;0.77;;
70132;SDS011;57495;49.922;7.966;2023-05-10T02:35:41;4.22;;;0.80;;
70132;SDS011;57495;49.922;7.966;2023-05-10T02:37:44;2.97;;;0.40;;
70132;SDS011;57495;49.922;7.966;2023-05-10T02:39:47;1.70;;;0.20;;
70132;SDS011;57495;49.922;7.966;2023-05-10T02:41:51;2.55;;;0.40;;
70132;SDS011;57495;49.922;7.966;2023-05-10T02:43:55;1.80;;;0.50;;
70132;SDS011;57495;49.922;7.966;2023-05-10T02:46:00;2.70;;;0.43;;
70132;SDS011;57495;49.922;7.966;2023-05-10T02:48:02;2.05;;;0.32;;
70132;SDS011;57495;49.922;7.966;2023-05-10T02:50:05;2.00;;;0.57;;
70132;SDS011;57495;49.922;7.966;2023-05-10T02:52:07;3.33;;;0.40;;
70132;SDS011;57495;49.922;7.966;2023-05-10T02:54:11;1.92;;;0.20;;
70132;SDS011;57495;49.922;7.966;2023-05-10T02:56:19;2.00;;;0.30;;
70132;SDS011;57495;49.922;7.966;2023-05-10T02:58:26;1.92;;;0.30;;
70132;SDS011;57495;49.922;7.966;2023-05-10T03:00:27;2.83;;;0.43;;
70132;SDS011;57495;49.922;7.966;2023-05-10T03:02:29;2.03;;;0.60;;
70132;SDS011;57495;49.922;7.966;2023-05-10T03:04:30;2.90;;;0.40;;
70132;SDS011;57495;49.922;7.966;2023-05-10T03:06:32;4.28;;;0.50;;
70132;SDS011;57495;49.922;7.966;2023-05-10T03:08:33;2.45;;;0.45;;
70132;SDS011;57495;49.922;7.966;2023-05-10T03:10:38;2.15;;;0.40;;
70132;SDS011;57495;49.922;7.966;2023-05-10T03:12:55;2.63;;;0.30;;
70132;SDS011;57495;49.922;7.966;2023-05-10T03:15:03;2.78;;;0.38;;
70132;SDS011;57495;49.922;7.966;2023-05-10T03:17:11;4.22;;;0.47;;
70132;SDS011;57495;49.922;7.966;2023-05-10T03:19:20;2.72;;;0.50;;
70132;SDS011;57495;49.922;7.966;2023-05-10T03:21:28;3.55;;;0.60;;
70132;SDS011;57495;49.922;7.966;2023-05-10T03:23:34;3.58;;;0.63;;
70132;SDS011;57495;49.922;7.966;2023-05-10T03:25:41;2.40;;;0.52;;
70132;SDS011;57495;49.922;7.966;2023-05-10T03:27:44;2.78;;;0.55;;
70132;SDS011;57495;49.922;7.966;2023-05-10T03:29:47;2.80;;;0.80;;
70132;SDS011;57495;49.922;7.966;2023-05-10T03:31:49;3.00;;;0.60;;
70132;SDS011;57495;49.922;7.966;2023-05-10T03:33:51;4.57;;;0.45;;
70132;SDS011;57495;49.922;7.966;2023-05-10T03:35:53;2.70;;;0.63;;
70132;SDS011;57495;49.922;7.966;2023-05-10T03:37:55;2.88;;;0.60;;
70132;SDS011;57495;49.922;7.966;2023-05-10T03:39:56;4.03;;;0.77;;
70132;SDS011;57495;49.922;7.966;2023-05-10T03:41:59;5.75;;;0.75;;
70132;SDS011;57495;49.922;7.966;2023-05-10T03:44:00;3.63;;;0.60;;
70132;SDS011;57495;49.922;7.966;2023-05-10T03:46:02;2.22;;;0.80;;
70132;SDS011;57495;49.922;7.966;2023-05-10T03:48:03;3.55;;;0.73;;
70132;SDS011;57495;49.922;7.966;2023-05-10T03:50:06;3.55;;;0.30;;
70132;SDS011;57495;49.922;7.966;2023-05-10T03:52:08;2.50;;;0.77;;
70132;SDS011;57495;49.922;7.966;2023-05-10T03:54:09;1.98;;;0.47;;
70132;SDS011;57495;49.922;7.966;2023-05-10T03:56:11;3.80;;;0.60;;
70132;SDS011;57495;49.922;7.966;2023-05-10T03:58:13;3.60;;;0.80;;
70132;SDS011;57495;49.922;7.966;2023-05-10T04:00:15;5.38;;;0.95;;
70132;SDS011;57495;49.922;7.966;2023-05-10T04:02:17;3.03;;;0.90;;
70132;SDS011;57495;49.922;7.966;2023-05-10T04:04:18;3.35;;;0.85;;
70132;SDS011;57495;49.922;7.966;2023-05-10T04:06:21;3.50;;;0.68;;
70132;SDS011;57495;49.922;7.966;2023-05-10T04:08:22;3.95;;;0.77;;
70132;SDS011;57495;49.922;7.966;2023-05-10T04:10:24;4.03;;;0.90;;
70132;SDS011;57495;49.922;7.966;2023-05-10T04:12:25;3.22;;;1.00;;
70132;SDS011;57495;49.922;7.966;2023-05-10T04:14:28;3.95;;;1.00;;
70132;SDS011;57495;49.922;7.966;2023-05-10T04:16:29;2.90;;;0.77;;
70132;SDS011;57495;49.922;7.966;2023-05-10T04:18:31;4.18;;;1.30;;
70132;SDS011;57495;49.922;7.966;2023-05-10T04:20:32;3.47;;;1.02;;
70132;SDS011;57495;49.922;7.966;2023-05-10T04:22:34;4.53;;;0.95;;
70132;SDS011;57495;49.922;7.966;2023-05-10T04:24:35;2.83;;;1.20;;
70132;SDS011;57495;49.922;7.966;2023-05-10T04:26:37;4.00;;;1.60;;
70132;SDS011;57495;49.922;7.966;2023-05-10T04:28:38;6.28;;;1.33;;
70132;SDS011;57495;49.922;7.966;2023-05-10T04:30:41;5.25;;;1.20;;
70132;SDS011;57495;49.922;7.966;2023-05-10T04:32:42;3.15;;;1.13;;
70132;SDS011;57495;49.922;7.966;2023-05-10T04:34:44;7.30;;;1.50;;
70132;SDS011;57495;49.922;7.966;2023-05-10T04:36:45;5.07;;;1.38;;
70132;SDS011;57495;49.922;7.966;2023-05-10T04:38:47;5.03;;;1.63;;
70132;SDS011;57495;49.922;7.966;2023-05-10T04:40:48;4.00;;;1.20;;
70132;SDS011;57495;49.922;7.966;2023-05-10T04:42:50;5.20;;;1.27;;
70132;SDS011;57495;49.922;7.966;2023-05-10T04:44:51;10.30;;;1.60;;
70132;SDS011;57495;49.922;7.966;2023-05-10T04:46:54;6.47;;;1.67;;
70132;SDS011;57495;49.922;7.966;2023-05-10T04:48:55;3.88;;;1.40;;
70132;SDS011;57495;49.922;7.966;2023-05-10T04:50:57;9.43;;;1.88;;
70132;SDS011;57495;49.922;7.966;2023-05-10T04:52:58;5.95;;;1.40;;
70132;SDS011;57495;49.922;7.966;2023-05-10T04:55:00;6.15;;;1.35;;
70132;SDS011;57495;49.922;7.966;2023-05-10T04:57:01;3.78;;;1.40;;
70132;SDS011;57495;49.922;7.966;2023-05-10T04:59:03;5.50;;;2.28;;
70132;SDS011;57495;49.922;7.966;2023-05-10T05:01:05;5.85;;;1.85;;
70132;SDS011;57495;49.922;7.966;2023-05-10T05:03:09;6.32;;;1.45;;
70132;SDS011;57495;49.922;7.966;2023-05-10T05:05:11;6.50;;;2.10;;
70132;SDS011;57495;49.922;7.966;2023-05-10T05:07:12;6.65;;;1.70;;
70132;SDS011;57495;49.922;7.966;2023-05-10T05:09:14;3.60;;;1.70;;
70132;SDS011;57495;49.922;7.966;2023-05-10T05:11:16;6.07;;;1.90;;
70132;SDS011;57495;49.922;7.966;2023-05-10T05:13:18;4.13;;;1.63;;
70132;SDS011;57495;49.922;7.966;2023-05-10T05:15:19;7.28;;;1.67;;
70132;SDS011;57495;49.922;7.966;2023-05-10T05:17:21;6.53;;;1.45;;
70132;SDS011;57495;49.922;7.966;2023-05-10T05:19:23;6.15;;;1.40;;
70132;SDS011;57495;49.922;7.966;2023-05-10T05:21:25;5.78;;;1.70;;
70132;SDS011;57495;49.922;7.966;2023-05-10T05:23:27;4.63;;;1.50;;
70132;SDS011;57495;49.922;7.966;2023-05-10T05:25:28;6.15;;;1.98;;
70132;SDS011;57495;49.922;7.966;2023-05-10T05:27:30;5.78;;;1.90;;
70132;SDS011;57495;49.922;7.966;2023-05-10T05:29:32;5.75;;;1.85;;
70132;SDS011;57495;49.922;7.966;2023-05-10T05:31:34;6.40;;;2.17;;
70132;SDS011;57495;49.922;7.966;2023-05-10T05:33:35;5.47;;;1.70;;
70132;SDS011;57495;49.922;7.966;2023-05-10T05:35:38;7.50;;;1.75;;
70132;SDS011;57495;49.922;7.966;2023-05-10T05:37:40;5.55;;;1.65;;
70132;SDS011;57495;49.922;7.966;2023-05-10T05:39:41;7.07;;;1.52;;
70132;SDS011;57495;49.922;7.966;2023-05-10T05:41:43;4.38;;;1.30;;
70132;SDS011;57495;49.922;7.966;2023-05-10T05:43:44;4.90;;;1.40;;
70132;SDS011;57495;49.922;7.966;2023-05-10T05:45:46;6.00;;;1.88;;
70132;SDS011;57495;49.922;7.966;2023-05-10T05:47:47;7.05;;;1.75;;
70132;SDS011;57495;49.922;7.966;2023-05-10T05:49:49;5.72;;;1.63;;
70132;SDS011;57495;49.922;7.966;2023-05-10T05:51:52;4.93;;;1.70;;
70132;SDS011;57495;49.922;7.966;2023-05-10T05:53:53;5.93;;;1.95;;
70132;SDS011;57495;49.922;7.966;2023-05-10T05:55:56;6.85;;;1.83;;
70132;SDS011;57495;49.922;7.966;2023-05-10T05:57:58;4.82;;;1.88;;
70132;SDS011;57495;49.922;7.966;2023-05-10T05:59:59;5.78;;;1.90;;
70132;SDS011;57495;49.922;7.966;2023-05-10T06:02:01;8.18;;;2.00;;
70132;SDS011;57495;49.922;7.966;2023-05-10T06:04:02;4.03;;;1.70;;
70132;SDS011;57495;49.922;7.966;2023-05-10T06:06:04;6.88;;;1.95;;
70132;SDS011;57495;49.922;7.966;2023-05-10T06:08:07;5.65;;;1.80;;
70132;SDS011;57495;49.922;7.966;2023-05-10T06:10:08;7.22;;;2.08;;
70132;SDS011;57495;49.922;7.966;2023-05-10T06:12:10;7.22;;;2.38;;
70132;SDS011;57495;49.922;7.966;2023-05-10T06:14:12;8.77;;;2.00;;
70132;SDS011;57495;49.922;7.966;2023-05-10T06:16:14;6.50;;;2.25;;
70132;SDS011;57495;49.922;7.966;2023-05-10T06:18:15;6.28;;;1.50;;
70132;SDS011;57495;49.922;7.966;2023-05-10T06:20:16;6.65;;;1.65;;
70132;SDS011;57495;49.922;7.966;2023-05-10T06:22:18;5.55;;;1.70;;
70132;SDS011;57495;49.922;7.966;2023-05-10T06:24:21;6.20;;;1.65;;
70132;SDS011;57495;49.922;7.966;2023-05-10T06:26:22;6.05;;;1.50;;
70132;SDS011;57495;49.922;7.966;2023-05-10T06:28:24;5.20;;;1.67;;
70132;SDS011;57495;49.922;7.966;2023-05-10T06:30:25;5.05;;;1.70;;
70132;SDS011;57495;49.922;7.966;2023-05-10T06:32:28;4.97;;;2.20;;
70132;SDS011;57495;49.922;7.966;2023-05-10T06:34:29;4.75;;;1.70;;
70132;SDS011;57495;49.922;7.966;2023-05-10T06:36:31;4.65;;;2.28;;
70132;SDS011;57495;49.922;7.966;2023-05-10T06:38:32;4.70;;;1.60;;
70132;SDS011;57495;49.922;7.966;2023-05-10T06:40:35;7.82;;;2.13;;
70132;SDS011;57495;49.922;7.966;2023-05-10T06:42:37;7.22;;;1.77;;
70132;SDS011;57495;49.922;7.966;2023-05-10T06:44:38;7.65;;;1.60;;
70132;SDS011;57495;49.922;7.966;2023-05-10T06:46:39;3.67;;;1.33;;
70132;SDS011;57495;49.922;7.966;2023-05-10T06:48:41;5.60;;;1.50;;
70132;SDS011;57495;49.922;7.966;2023-05-10T06:50:42;5.78;;;1.58;;
70132;SDS011;57495;49.922;7.966;2023-05-10T06:52:44;7.88;;;1.50;;
70132;SDS011;57495;49.922;7.966;2023-05-10T06:54:46;5.22;;;1.20;;
70132;SDS011;57495;49.922;7.966;2023-05-10T06:56:48;5.85;;;1.55;;
70132;SDS011;57495;49.922;7.966;2023-05-10T06:58:50;7.77;;;1.80;;
70132;SDS011;57495;49.922;7.966;2023-05-10T07:00:51;4.63;;;1.90;;
70132;SDS011;57495;49.922;7.966;2023-05-10T07:02:53;7.47;;;1.60;;
70132;SDS011;57495;49.922;7.966;2023-05-10T07:04:54;3.95;;;1.40;;
70132;SDS011;57495;49.922;7.966;2023-05-10T07:06:56;4.68;;;1.75;;
70132;SDS011;57495;49.922;7.966;2023-05-10T07:08:57;6.07;;;1.57;;
70132;SDS011;57495;49.922;7.966;2023-05-10T07:10:59;5.05;;;1.40;;
70132;SDS011;57495;49.922;7.966;2023-05-10T07:13:03;7.45;;;1.52;;
70132;SDS011;57495;49.922;7.966;2023-05-10T07:15:04;5.82;;;1.73;;
70132;SDS011;57495;49.922;7.966;2023-05-10T07:17:07;3.80;;;1.17;;
70132;SDS011;57495;49.922;7.966;2023-05-10T07:19:08;4.23;;;1.23;;
70132;SDS011;57495;49.922;7.966;2023-05-10T07:21:10;7.85;;;1.67;;
70132;SDS011;57495;49.922;7.966;2023-05-10T07:23:11;6.85;;;1.83;;
70132;SDS011;57495;49.922;7.966;2023-05-10T07:25:13;4.53;;;1.80;;
70132;SDS011;57495;49.922;7.966;2023-05-10T07:27:14;4.57;;;1.65;;
70132;SDS011;57495;49.922;7.966;2023-05-10T07:29:17;5.90;;;1.97;;
70132;SDS011;57495;49.922;7.966;2023-05-10T07:31:18;5.20;;;1.60;;
70132;SDS011;57495;49.922;7.966;2023-05-10T07:33:20;5.63;;;1.55;;
70132;SDS011;57495;49.922;7.966;2023-05-10T07:35:21;3.95;;;1.40;;
70132;SDS011;57495;49.922;7.966;2023-05-10T07:37:22;3.40;;;1.45;;
70132;SDS011;57495;49.922;7.966;2023-05-10T07:39:24;4.17;;;1.20;;
70132;SDS011;57495;49.922;7.966;2023-05-10T07:41:25;3.92;;;1.02;;
70132;SDS011;57495;49.922;7.966;2023-05-10T07:43:27;3.58;;;1.00;;
70132;SDS011;57495;49.922;7.966;2023-05-10T07:45:30;5.85;;;1.27;;
70132;SDS011;57495;49.922;7.966;2023-05-10T07:47:31;4.15;;;1.23;;
70132;SDS011;57495;49.922;7.966;2023-05-10T07:49:32;4.63;;;1.40;;
70132;SDS011;57495;49.922;7.966;2023-05-10T07:51:34;4.40;;;1.30;;
70132;SDS011;57495;49.922;7.966;2023-05-10T07:53:35;3.03;;;1.10;;
70132;SDS011;57495;49.922;7.966;2023-05-10T07:55:37;4.47;;;1.10;;
70132;SDS011;57495;49.922;7.966;2023-05-10T07:57:38;4.07;;;1.38;;
70132;SDS011;57495;49.922;7.966;2023-05-10T07:59:40;3.67;;;1.50;;
70132;SDS011;57495;49.922;7.966;2023-05-10T08:01:43;3.90;;;0.90;;
70132;SDS011;57495;49.922;7.966;2023-05-10T08:03:45;3.92;;;1.10;;
70132;SDS011;57495;49.922;7.966;2023-05-10T08:05:46;4.18;;;0.90;;
70132;SDS011;57495;49.922;7.966;2023-05-10T08:07:48;4.65;;;1.00;;
70132;SDS011;57495;49.922;7.966;2023-05-10T08:09:49;3.33;;;0.83;;
70132;SDS011;57495;49.922;7.966;2023-05-10T08:11:51;3.90;;;0.80;;
70132;SDS011;57495;49.922;7.966;2023-05-10T08:13:52;3.10;;;0.73;;
70132;SDS011;57495;49.922;7.966;2023-05-10T08:15:54;3.17;;;0.90;;
70132;SDS011;57495;49.922;7.966;2023-05-10T08:17:56;3.10;;;0.57;;
70132;SDS011;57495;49.922;7.966;2023-05-10T08:19:58;3.03;;;0.60;;
70132;SDS011;57495;49.922;7.966;2023-05-10T08:21:59;2.33;;;0.60;;
70132;SDS011;57495;49.922;7.966;2023-05-10T08:24:01;2.67;;;0.50;;
70132;SDS011;57495;49.922;7.966;2023-05-10T08:26:02;2.60;;;0.40;;
70132;SDS011;57495;49.922;7.966;2023-05-10T08:28:04;2.75;;;0.75;;
70132;SDS011;57495;49.922;7.966;2023-05-10T08:30:06;3.00;;;1.13;;
70132;SDS011;57495;49.922;7.966;2023-05-10T08:32:08;2.00;;;0.50;;
70132;SDS011;57495;49.922;7.966;2023-05-10T08:34:11;2.55;;;0.50;;
70132;SDS011;57495;49.922;7.966;2023-05-10T08:36:12;2.67;;;0.30;;
70132;SDS011;57495;49.922;7.966;2023-05-10T08:38:19;2.67;;;0.50;;
70132;SDS011;57495;49.922;7.966;2023-05-10T08:40:21;1.73;;;0.60;;
70132;SDS011;57495;49.922;7.966;2023-05-10T08:42:25;2.47;;;0.30;;
70132;SDS011;57495;49.922;7.966;2023-05-10T08:44:31;2.15;;;0.52;;
70132;SDS011;57495;49.922;7.966;2023-05-10T08:46:35;4.57;;;0.50;;
70132;SDS011;57495;49.922;7.966;2023-05-10T08:48:39;1.38;;;0.20;;
70132;SDS011;57495;49.922;7.966;2023-05-10T08:50:43;1.17;;;0.30;;
70132;SDS011;57495;49.922;7.966;2023-05-10T08:52:45;1.60;;;0.30;;
70132;SDS011;57495;49.922;7.966;2023-05-10T08:54:49;1.55;;;0.20;;
70132;SDS011;57495;49.922;7.966;2023-05-10T08:56:51;1.40;;;0.20;;
70132;SDS011;57495;49.922;7.966;2023-05-10T08:58:53;1.92;;;0.45;;
70132;SDS011;57495;49.922;7.966;2023-05-10T09:00:55;1.53;;;0.30;;
70132;SDS011;57495;49.922;7.966;2023-05-10T09:02:58;1.42;;;0.20;;
70132;SDS011;57495;49.922;7.966;2023-05-10T09:04:59;1.35;;;0.20;;
70132;SDS011;57495;49.922;7.966;2023-05-10T09:07:02;1.45;;;0.20;;
70132;SDS011;57495;49.922;7.966;2023-05-10T09:09:04;1.52;;;0.20;;
70132;SDS011;57495;49.922;7.966;2023-05-10T09:11:06;1.47;;;0.30;;
70132;SDS011;57495;49.922;7.966;2023-05-10T09:13:07;1.80;;;0.20;;
70132;SDS011;57495;49.922;7.966;2023-05-10T09:15:11;5.13;;;0.28;;
70132;SDS011;57495;49.922;7.966;2023-05-10T09:17:15;1.48;;;0.20;;
70132;SDS011;57495;49.922;7.966;2023-05-10T09:19:17;1.52;;;0.20;;
70132;SDS011;57495;49.922;7.966;2023-05-10T09:21:19;2.80;;;0.27;;
70132;SDS011;57495;49.922;7.966;2023-05-10T09:23:22;1.55;;;0.20;;
70132;SDS011;57495;49.922;7.966;2023-05-10T09:25:28;1.50;;;0.20;;
70132;SDS011;57495;49.922;7.966;2023-05-10T09:27:30;1.65;;;0.20;;
70132;SDS011;57495;49.922;7.966;2023-05-10T09:29:38;2.10;;;0.35;;
70132;SDS011;57495;49.922;7.966;2023-05-10T09:31:43;1.70;;;0.40;;
70132;SDS011;57495;49.922;7.966;2023-05-10T09:33:46;2.15;;;0.30;;
70132;SDS011;57495;49.922;7.966;2023-05-10T09:35:49;1.38;;;0.20;;
70132;SDS011;57495;49.922;7.966;2023-05-10T09:37:54;2.03;;;0.30;;
70132;SDS011;57495;49.922;7.966;2023-05-10T09:39:58;3.38;;;0.40;;
70132;SDS011;57495;49.922;7.966;2023-05-10T09:41:59;1.40;;;0.10;;
70132;SDS011;57495;49.922;7.966;2023-05-10T09:44:03;1.67;;;0.20;;
70132;SDS011;57495;49.922;7.966;2023-05-10T09:46:08;3.25;;;0.40;;
70132;SDS011;57495;49.922;7.966;2023-05-10T09:48:10;1.40;;;0.20;;
70132;SDS011;57495;49.922;7.966;2023-05-10T09:50:11;4.00;;;0.40;;
70132;SDS011;57495;49.922;7.966;2023-05-10T09:52:12;1.80;;;0.27;;
70132;SDS011;57495;49.922;7.966;2023-05-10T09:54:14;2.38;;;0.30;;
70132;SDS011;57495;49.922;7.966;2023-05-10T09:58:36;2.72;;;1.23;;
70132;SDS011;57495;49.922;7.966;2023-05-10T10:00:38;2.63;;;1.02;;
70132;SDS011;57495;49.922;7.966;2023-05-10T10:02:41;1.90;;;0.80;;
70132;SDS011;57495;49.922;7.966;2023-05-10T10:04:42;2.28;;;0.77;;
70132;SDS011;57495;49.922;7.966;2023-05-10T10:06:44;2.47;;;0.85;;
70132;SDS011;57495;49.922;7.966;2023-05-10T10:08:45;2.13;;;0.90;;
70132;SDS011;57495;49.922;7.966;2023-05-10T10:10:47;2.42;;;1.15;;
70132;SDS011;57495;49.922;7.966;2023-05-10T10:12:50;2.27;;;1.00;;
70132;SDS011;57495;49.922;7.966;2023-05-10T10:14:52;2.72;;;1.10;;
70132;SDS011;57495;49.922;7.966;2023-05-10T10:16:54;3.20;;;1.00;;
70132;SDS011;57495;49.922;7.966;2023-05-10T10:18:56;2.60;;;0.80;;
70132;SDS011;57495;49.922;7.966;2023-05-10T10:20:58;2.70;;;1.30;;
70132;SDS011;57495;49.922;7.966;2023-05-10T10:23:00;2.80;;;1.33;;
70132;SDS011;57495;49.922;7.966;2023-05-10T10:25:01;1.90;;;0.80;;
70132;SDS011;57495;49.922;7.966;2023-05-10T10:27:04;2.35;;;0.98;;
70132;SDS011;57495;49.922;7.966;2023-05-10T10:29:20;3.33;;;1.30;;
70132;SDS011;57495;49.922;7.966;2023-05-10T10:31:26;2.20;;;1.08;;
70132;SDS011;57495;49.922;7.966;2023-05-10T10:33:38;2.37;;;1.20;;
70132;SDS011;57495;49.922;7.966;2023-05-10T10:35:50;2.80;;;1.70;;
70132;SDS011;57495;49.922;7.966;2023-05-10T10:37:53;2.90;;;1.08;;
70132;SDS011;57495;49.922;7.966;2023-05-10T10:39:55;1.95;;;0.77;;
70132;SDS011;57495;49.922;7.966;2023-05-10T10:41:57;3.25;;;1.20;;
70132;SDS011;57495;49.922;7.966;2023-05-10T10:46:34;3.75;;;1.30;;
70132;SDS011;57495;49.922;7.966;2023-05-10T10:49:18;4.18;;;1.10;;
70132;SDS011;57495;49.922;7.966;2023-05-10T10:51:20;2.42;;;1.08;;
70132;SDS011;57495;49.922;7.966;2023-05-10T10:53:21;3.22;;;1.10;;
70132;SDS011;57495;49.922;7.966;2023-05-10T10:55:22;3.67;;;1.20;;
70132;SDS011;57495;49.922;7.966;2023-05-10T10:57:26;7.15;;;1.88;;
70132;SDS011;57495;49.922;7.966;2023-05-10T10:59:31;3.10;;;1.60;;
70132;SDS011;57495;49.922;7.966;2023-05-10T11:01:32;2.15;;;0.98;;
70132;SDS011;57495;49.922;7.966;2023-05-10T11:03:35;2.70;;;1.40;;
70132;SDS011;57495;49.922;7.966;2023-05-10T11:05:37;2.93;;;0.97;;
70132;SDS011;57495;49.922;7.966;2023-05-10T11:07:50;2.72;;;1.50;;
70132;SDS011;57495;49.922;7.966;2023-05-10T11:09:53;2.40;;;0.95;;
70132;SDS011;57495;49.922;7.966;2023-05-10T11:11:55;2.13;;;0.90;;
70132;SDS011;57495;49.922;7.966;2023-05-10T11:14:02;2.58;;;1.20;;
70132;SDS011;57495;49.922;7.966;2023-05-10T11:16:12;3.13;;;1.20;;
70132;SDS011;57495;49.922;7.966;2023-05-10T11:18:16;3.17;;;0.55;;
70132;SDS011;57495;49.922;7.966;2023-05-10T11:20:19;3.30;;;0.80;;
70132;SDS011;57495;49.922;7.966;2023-05-10T11:22:22;3.72;;;0.90;;
70132;SDS011;57495;49.922;7.966;2023-05-10T11:24:27;2.85;;;0.80;;
70132;SDS011;57495;49.922;7.966;2023-05-10T11:26:30;3.07;;;1.10;;
70132;SDS011;57495;49.922;7.966;2023-05-10T11:28:32;2.78;;;0.90;;
70132;SDS011;57495;49.922;7.966;2023-05-10T11:30:34;4.90;;;0.63;;
70132;SDS011;57495;49.922;7.966;2023-05-10T11:32:38;4.07;;;0.70;;
70132;SDS011;57495;49.922;7.966;2023-05-10T11:34:40;1.90;;;0.70;;
70132;SDS011;57495;49.922;7.966;2023-05-10T11:36:41;3.63;;;0.53;;
70132;SDS011;57495;49.922;7.966;2023-05-10T11:38:43;1.60;;;0.20;;
70132;SDS011;57495;49.922;7.966;2023-05-10T11:40:44;1.73;;;0.30;;
70132;SDS011;57495;49.922;7.966;2023-05-10T11:42:46;2.65;;;0.30;;
70132;SDS011;57495;49.922;7.966;2023-05-10T11:44:47;2.22;;;0.40;;
70132;SDS011;57495;49.922;7.966;2023-05-10T11:46:49;1.10;;;0.10;;
70132;SDS011;57495;49.922;7.966;2023-05-10T11:48:52;3.70;;;0.60;;
70132;SDS011;57495;49.922;7.966;2023-05-10T11:50:55;2.33;;;0.38;;
70132;SDS011;57495;49.922;7.966;2023-05-10T11:52:57;1.42;;;0.30;;
70132;SDS011;57495;49.922;7.966;2023-05-10T11:54:59;1.20;;;0.20;;
70132;SDS011;57495;49.922;7.966;2023-05-10T11:57:01;1.60;;;0.23;;
70132;SDS011;57495;49.922;7.966;2023-05-10T11:59:03;1.63;;;0.20;;
70132;SDS011;57495;49.922;7.966;2023-05-10T12:01:05;2.00;;;0.20;;
70132;SDS011;57495;49.922;7.966;2023-05-10T12:03:09;3.17;;;0.60;;
70132;SDS011;57495;49.922;7.966;2023-05-10T12:05:12;2.72;;;0.20;;
70132;SDS011;57495;49.922;7.966;2023-05-10T12:07:14;1.57;;;0.20;;
70132;SDS011;57495;49.922;7.966;2023-05-10T12:09:15;2.30;;;0.30;;
70132;SDS011;57495;49.922;7.966;2023-05-10T12:11:17;4.40;;;0.55;;
70132;SDS011;57495;49.922;7.966;2023-05-10T12:13:19;1.42;;;0.20;;
70132;SDS011;57495;49.922;7.966;2023-05-10T12:15:22;1.63;;;0.20;;
70132;SDS011;57495;49.922;7.966;2023-05-10T12:17:27;1.40;;;0.27;;
70132;SDS011;57495;49.922;7.966;2023-05-10T12:19:28;1.52;;;0.30;;
70132;SDS011;57495;49.922;7.966;2023-05-10T12:21:39;3.60;;;0.40;;
70132;SDS011;57495;49.922;7.966;2023-05-10T12:23:41;3.55;;;0.35;;
70132;SDS011;57495;49.922;7.966;2023-05-10T12:25:43;1.67;;;0.50;;
70132;SDS011;57495;49.922;7.966;2023-05-10T12:27:49;2.60;;;0.50;;
70132;SDS011;57495;49.922;7.966;2023-05-10T12:29:52;3.35;;;0.63;;